Newcomb, Tennessee
Current Conditions -  °F | °C
As of 7:35 AM on Saturday 25 Oct 2014 (Local Time) from K1A6 Reporting Station
Moderate Fog Moderate Fog  
Wind Chill: 38°   Ceiling: 300
Heat Index: 38°   Visibility: 0.5mi
Dew Point: 38°   Wind: 0mph
Humidity: 100%   Direction: NA
Pressure: 30.12"   Gusts: NA
Location:  36.55°N, 84.17°W
Report Text: K1A6 251135Z AUTO 00000KT 1/2SM FG OVC003 04/04 A3012 RMK AO2 T00350035
Loading
Personal Weather Stations






























Interactive Weather Map
Tropical Storm Tracking
New forecast layout! Learn more

10-Day Weather Forecast

Advertisements
Track Severe Weather on mobile